sensor_id;sensor_type;location;lat;lon;timestamp;pressure;altitude;pressure_sealevel;temperature;humidity
75996;BME280;64681;49.738;9.004;2022-11-06T00:02:15;99895.88;;;5.32;84.98
75996;BME280;64681;49.738;9.004;2022-11-06T00:04:41;99906.50;;;5.75;82.55
75996;BME280;64681;49.738;9.004;2022-11-06T00:07:07;99904.47;;;5.48;83.60
75996;BME280;64681;49.738;9.004;2022-11-06T00:09:33;99898.75;;;5.60;82.90
75996;BME280;64681;49.738;9.004;2022-11-06T00:11:59;99904.03;;;5.84;81.71
75996;BME280;64681;49.738;9.004;2022-11-06T00:14:24;99898.59;;;5.51;83.14
75996;BME280;64681;49.738;9.004;2022-11-06T00:16:50;99896.63;;;5.81;81.78
75996;BME280;64681;49.738;9.004;2022-11-06T00:19:17;99896.09;;;5.84;80.91
75996;BME280;64681;49.738;9.004;2022-11-06T00:21:43;99895.28;;;5.83;81.07
75996;BME280;64681;49.738;9.004;2022-11-06T00:24:11;99892.16;;;5.81;80.60
75996;BME280;64681;49.738;9.004;2022-11-06T00:26:38;99893.34;;;5.70;81.04
75996;BME280;64681;49.738;9.004;2022-11-06T00:29:05;99893.25;;;5.75;81.09
75996;BME280;64681;49.738;9.004;2022-11-06T00:31:34;99879.78;;;5.71;81.03
75996;BME280;64681;49.738;9.004;2022-11-06T00:34:01;99884.88;;;5.68;82.02
75996;BME280;64681;49.738;9.004;2022-11-06T00:36:28;99886.97;;;5.71;81.33
75996;BME280;64681;49.738;9.004;2022-11-06T00:39:00;99882.09;;;5.78;80.57
75996;BME280;64681;49.738;9.004;2022-11-06T00:41:26;99884.25;;;5.76;80.54
75996;BME280;64681;49.738;9.004;2022-11-06T00:43:58;99891.63;;;5.79;80.42
75996;BME280;64681;49.738;9.004;2022-11-06T00:46:25;99890.50;;;5.85;80.08
75996;BME280;64681;49.738;9.004;2022-11-06T00:48:52;99893.81;;;5.53;81.90
75996;BME280;64681;49.738;9.004;2022-11-06T00:51:24;99875.13;;;5.15;83.22
75996;BME280;64681;49.738;9.004;2022-11-06T00:53:58;99877.44;;;5.21;82.40
75996;BME280;64681;49.738;9.004;2022-11-06T00:56:25;99876.34;;;4.98;82.91
75996;BME280;64681;49.738;9.004;2022-11-06T00:58:52;99874.00;;;4.97;82.76
75996;BME280;64681;49.738;9.004;2022-11-06T01:01:27;99869.44;;;4.73;84.44
75996;BME280;64681;49.738;9.004;2022-11-06T01:04:05;99861.56;;;4.63;84.79
75996;BME280;64681;49.738;9.004;2022-11-06T01:06:38;99859.16;;;4.66;83.83
75996;BME280;64681;49.738;9.004;2022-11-06T01:09:05;99852.69;;;4.48;85.13
75996;BME280;64681;49.738;9.004;2022-11-06T01:11:40;99854.09;;;4.40;84.98
75996;BME280;64681;49.738;9.004;2022-11-06T01:14:07;99857.38;;;4.56;84.18
75996;BME280;64681;49.738;9.004;2022-11-06T01:16:34;99854.16;;;4.65;83.82
75996;BME280;64681;49.738;9.004;2022-11-06T01:19:00;99857.06;;;4.93;82.20
75996;BME280;64681;49.738;9.004;2022-11-06T01:21:29;99856.50;;;4.66;83.48
75996;BME280;64681;49.738;9.004;2022-11-06T01:23:58;99862.88;;;4.65;82.86
75996;BME280;64681;49.738;9.004;2022-11-06T01:26:25;99859.81;;;4.53;82.92
75996;BME280;64681;49.738;9.004;2022-11-06T01:28:51;99846.09;;;4.46;84.08
75996;BME280;64681;49.738;9.004;2022-11-06T01:31:20;99842.63;;;4.50;83.18
75996;BME280;64681;49.738;9.004;2022-11-06T01:33:46;99843.50;;;4.40;83.78
75996;BME280;64681;49.738;9.004;2022-11-06T01:36:14;99838.13;;;4.51;82.69
75996;BME280;64681;49.738;9.004;2022-11-06T01:38:44;99835.81;;;4.44;82.99
75996;BME280;64681;49.738;9.004;2022-11-06T01:41:17;99832.94;;;4.35;83.49
75996;BME280;64681;49.738;9.004;2022-11-06T01:43:47;99830.84;;;4.37;83.57
75996;BME280;64681;49.738;9.004;2022-11-06T01:46:14;99831.88;;;4.36;83.52
75996;BME280;64681;49.738;9.004;2022-11-06T01:48:45;99822.53;;;4.15;84.96
75996;BME280;64681;49.738;9.004;2022-11-06T01:51:13;99819.81;;;4.25;84.50
75996;BME280;64681;49.738;9.004;2022-11-06T01:53:39;99819.31;;;4.57;84.31
75996;BME280;64681;49.738;9.004;2022-11-06T01:56:09;99828.22;;;4.67;83.26
75996;BME280;64681;49.738;9.004;2022-11-06T01:58:40;99820.88;;;4.58;84.99
75996;BME280;64681;49.738;9.004;2022-11-06T02:01:08;99825.06;;;4.65;83.75
75996;BME280;64681;49.738;9.004;2022-11-06T02:03:35;99837.69;;;4.73;82.89
75996;BME280;64681;49.738;9.004;2022-11-06T02:06:03;99840.59;;;4.71;83.64
75996;BME280;64681;49.738;9.004;2022-11-06T02:08:29;99824.63;;;4.82;82.27
75996;BME280;64681;49.738;9.004;2022-11-06T02:10:55;99826.53;;;4.76;82.83
75996;BME280;64681;49.738;9.004;2022-11-06T02:22:06;99814.44;;;4.35;83.89
75996;BME280;64681;49.738;9.004;2022-11-06T02:25:04;99815.28;;;3.91;85.20
75996;BME280;64681;49.738;9.004;2022-11-06T02:27:33;99814.03;;;3.83;85.29
75996;BME280;64681;49.738;9.004;2022-11-06T02:30:11;99816.47;;;3.69;85.92
75996;BME280;64681;49.738;9.004;2022-11-06T02:32:48;99811.41;;;3.73;85.08
75996;BME280;64681;49.738;9.004;2022-11-06T02:37:59;99808.38;;;3.95;84.06
75996;BME280;64681;49.738;9.004;2022-11-06T02:40:31;99807.31;;;3.51;86.60
75996;BME280;64681;49.738;9.004;2022-11-06T02:43:03;99798.47;;;3.76;85.35
75996;BME280;64681;49.738;9.004;2022-11-06T02:45:47;99794.91;;;3.96;85.07
75996;BME280;64681;49.738;9.004;2022-11-06T02:48:19;99793.53;;;4.04;84.82
75996;BME280;64681;49.738;9.004;2022-11-06T02:50:49;99779.84;;;4.32;84.55
75996;BME280;64681;49.738;9.004;2022-11-06T02:53:19;99772.06;;;4.46;83.96
75996;BME280;64681;49.738;9.004;2022-11-06T02:55:57;99775.31;;;4.37;84.27
75996;BME280;64681;49.738;9.004;2022-11-06T03:01:02;99783.00;;;3.99;84.88
75996;BME280;64681;49.738;9.004;2022-11-06T03:03:36;99782.56;;;3.82;85.32
75996;BME280;64681;49.738;9.004;2022-11-06T03:06:17;99774.41;;;3.78;85.06
75996;BME280;64681;49.738;9.004;2022-11-06T03:09:04;99776.19;;;3.88;84.40
75996;BME280;64681;49.738;9.004;2022-11-06T03:11:33;99784.59;;;4.00;83.49
75996;BME280;64681;49.738;9.004;2022-11-06T03:17:00;99793.13;;;3.87;84.45
75996;BME280;64681;49.738;9.004;2022-11-06T03:19:48;99792.03;;;3.88;83.56
75996;BME280;64681;49.738;9.004;2022-11-06T03:22:32;99783.13;;;3.78;85.14
75996;BME280;64681;49.738;9.004;2022-11-06T03:25:42;99792.09;;;3.83;84.96
75996;BME280;64681;49.738;9.004;2022-11-06T03:28:07;99792.69;;;3.64;85.99
75996;BME280;64681;49.738;9.004;2022-11-06T03:30:42;99783.63;;;3.36;86.56
75996;BME280;64681;49.738;9.004;2022-11-06T03:33:28;99796.56;;;3.32;85.99
75996;BME280;64681;49.738;9.004;2022-11-06T03:36:06;99806.06;;;3.33;86.61
75996;BME280;64681;49.738;9.004;2022-11-06T03:38:39;99794.91;;;3.46;85.50
75996;BME280;64681;49.738;9.004;2022-11-06T03:41:36;99799.94;;;3.38;85.77
75996;BME280;64681;49.738;9.004;2022-11-06T03:44:04;99793.28;;;3.56;85.25
75996;BME280;64681;49.738;9.004;2022-11-06T03:46:37;99781.50;;;3.32;86.47
75996;BME280;64681;49.738;9.004;2022-11-06T03:49:11;99767.03;;;3.20;86.86
75996;BME280;64681;49.738;9.004;2022-11-06T03:51:46;99761.50;;;3.16;86.70
75996;BME280;64681;49.738;9.004;2022-11-06T03:54:20;99766.56;;;3.62;84.00
75996;BME280;64681;49.738;9.004;2022-11-06T03:56:59;99762.16;;;3.92;83.74
75996;BME280;64681;49.738;9.004;2022-11-06T03:59:34;99762.44;;;3.91;82.88
75996;BME280;64681;49.738;9.004;2022-11-06T04:02:02;99764.81;;;3.92;83.23
75996;BME280;64681;49.738;9.004;2022-11-06T04:04:37;99763.66;;;3.69;84.38
75996;BME280;64681;49.738;9.004;2022-11-06T04:07:15;99769.25;;;3.57;85.33
75996;BME280;64681;49.738;9.004;2022-11-06T04:09:49;99765.63;;;3.43;86.25
75996;BME280;64681;49.738;9.004;2022-11-06T04:12:37;99766.31;;;3.04;86.94
75996;BME280;64681;49.738;9.004;2022-11-06T04:15:23;99761.56;;;3.06;85.82
75996;BME280;64681;49.738;9.004;2022-11-06T04:17:49;99746.09;;;3.44;84.15
75996;BME280;64681;49.738;9.004;2022-11-06T04:20:19;99755.28;;;3.52;82.74
75996;BME280;64681;49.738;9.004;2022-11-06T04:32:03;99765.22;;;3.70;81.63
75996;BME280;64681;49.738;9.004;2022-11-06T04:37:35;99741.06;;;3.47;83.83
75996;BME280;64681;49.738;9.004;2022-11-06T04:40:10;99750.63;;;3.33;84.76
75996;BME280;64681;49.738;9.004;2022-11-06T04:42:45;99754.22;;;3.53;83.90
75996;BME280;64681;49.738;9.004;2022-11-06T04:45:24;99743.66;;;3.53;85.27
75996;BME280;64681;49.738;9.004;2022-11-06T04:47:52;99739.47;;;3.46;85.51
75996;BME280;64681;49.738;9.004;2022-11-06T04:50:22;99730.31;;;3.73;83.31
75996;BME280;64681;49.738;9.004;2022-11-06T04:52:50;99738.00;;;3.75;82.66
75996;BME280;64681;49.738;9.004;2022-11-06T04:55:16;99735.22;;;3.51;83.74
75996;BME280;64681;49.738;9.004;2022-11-06T04:57:42;99744.31;;;3.29;84.70
75996;BME280;64681;49.738;9.004;2022-11-06T05:00:12;99749.94;;;3.01;85.36
75996;BME280;64681;49.738;9.004;2022-11-06T05:02:38;99767.06;;;3.14;85.39
75996;BME280;64681;49.738;9.004;2022-11-06T05:05:04;99778.13;;;3.22;85.62
75996;BME280;64681;49.738;9.004;2022-11-06T05:07:29;99780.41;;;3.39;83.80
75996;BME280;64681;49.738;9.004;2022-11-06T05:09:55;99780.97;;;3.36;83.52
75996;BME280;64681;49.738;9.004;2022-11-06T05:12:20;99768.28;;;3.38;83.17
75996;BME280;64681;49.738;9.004;2022-11-06T05:14:46;99769.38;;;3.37;83.85
75996;BME280;64681;49.738;9.004;2022-11-06T05:17:11;99762.00;;;3.28;83.09
75996;BME280;64681;49.738;9.004;2022-11-06T05:19:37;99755.34;;;3.36;83.06
75996;BME280;64681;49.738;9.004;2022-11-06T05:22:03;99761.97;;;3.33;82.72
75996;BME280;64681;49.738;9.004;2022-11-06T05:24:47;99772.03;;;3.26;82.66
75996;BME280;64681;49.738;9.004;2022-11-06T05:27:13;99780.22;;;3.25;82.22
75996;BME280;64681;49.738;9.004;2022-11-06T05:29:38;99778.19;;;2.96;84.47
75996;BME280;64681;49.738;9.004;2022-11-06T05:32:04;99752.16;;;2.74;84.51
75996;BME280;64681;49.738;9.004;2022-11-06T05:34:29;99762.66;;;2.89;83.63
75996;BME280;64681;49.738;9.004;2022-11-06T05:36:55;99776.09;;;2.88;83.98
75996;BME280;64681;49.738;9.004;2022-11-06T05:39:21;99771.09;;;2.96;83.67
75996;BME280;64681;49.738;9.004;2022-11-06T05:41:47;99766.66;;;2.76;85.04
75996;BME280;64681;49.738;9.004;2022-11-06T05:44:13;99762.72;;;2.63;84.51
75996;BME280;64681;49.738;9.004;2022-11-06T05:46:38;99757.38;;;2.84;83.51
75996;BME280;64681;49.738;9.004;2022-11-06T05:49:04;99753.97;;;2.83;83.33
75996;BME280;64681;49.738;9.004;2022-11-06T05:51:29;99732.63;;;2.69;83.07
75996;BME280;64681;49.738;9.004;2022-11-06T05:53:55;99745.72;;;3.00;82.51
75996;BME280;64681;49.738;9.004;2022-11-06T05:56:21;99743.16;;;2.90;82.49
75996;BME280;64681;49.738;9.004;2022-11-06T05:58:46;99748.16;;;2.87;82.80
75996;BME280;64681;49.738;9.004;2022-11-06T06:01:12;99729.19;;;2.84;82.95
75996;BME280;64681;49.738;9.004;2022-11-06T06:03:37;99729.41;;;2.93;83.00
75996;BME280;64681;49.738;9.004;2022-11-06T06:06:03;99737.06;;;2.90;83.55
75996;BME280;64681;49.738;9.004;2022-11-06T06:08:28;99740.00;;;2.83;85.45
75996;BME280;64681;49.738;9.004;2022-11-06T06:10:54;99737.84;;;2.95;85.39
75996;BME280;64681;49.738;9.004;2022-11-06T06:13:19;99739.63;;;3.15;84.05
75996;BME280;64681;49.738;9.004;2022-11-06T06:15:45;99733.81;;;3.13;83.94
75996;BME280;64681;49.738;9.004;2022-11-06T06:18:11;99729.66;;;3.02;84.99
75996;BME280;64681;49.738;9.004;2022-11-06T06:20:37;99728.81;;;3.07;84.75
75996;BME280;64681;49.738;9.004;2022-11-06T06:23:04;99721.91;;;3.26;83.48
75996;BME280;64681;49.738;9.004;2022-11-06T06:25:30;99709.09;;;2.94;84.31
75996;BME280;64681;49.738;9.004;2022-11-06T06:27:56;99715.81;;;2.50;86.22
75996;BME280;64681;49.738;9.004;2022-11-06T06:30:23;99701.34;;;2.32;86.98
75996;BME280;64681;49.738;9.004;2022-11-06T06:32:50;99693.38;;;2.68;84.70
75996;BME280;64681;49.738;9.004;2022-11-06T06:35:16;99701.97;;;2.94;83.52
75996;BME280;64681;49.738;9.004;2022-11-06T06:37:49;99711.94;;;3.13;83.21
75996;BME280;64681;49.738;9.004;2022-11-06T06:40:14;99724.06;;;3.14;83.02
75996;BME280;64681;49.738;9.004;2022-11-06T06:42:40;99727.06;;;2.87;83.80
75996;BME280;64681;49.738;9.004;2022-11-06T06:45:05;99710.59;;;3.15;83.19
75996;BME280;64681;49.738;9.004;2022-11-06T06:47:31;99699.88;;;2.96;84.46
75996;BME280;64681;49.738;9.004;2022-11-06T06:49:56;99691.72;;;2.82;84.08
75996;BME280;64681;49.738;9.004;2022-11-06T06:52:22;99685.66;;;2.87;84.17
75996;BME280;64681;49.738;9.004;2022-11-06T06:54:47;99689.66;;;2.74;84.83
75996;BME280;64681;49.738;9.004;2022-11-06T06:57:13;99684.63;;;2.78;84.64
75996;BME280;64681;49.738;9.004;2022-11-06T06:59:38;99678.19;;;2.99;83.66
75996;BME280;64681;49.738;9.004;2022-11-06T07:02:04;99672.28;;;2.68;85.20
75996;BME280;64681;49.738;9.004;2022-11-06T07:04:30;99669.91;;;2.61;85.38
75996;BME280;64681;49.738;9.004;2022-11-06T07:06:55;99648.16;;;2.95;83.41
75996;BME280;64681;49.738;9.004;2022-11-06T07:09:21;99621.78;;;2.95;83.12
75996;BME280;64681;49.738;9.004;2022-11-06T07:11:48;99648.75;;;3.32;82.10
75996;BME280;64681;49.738;9.004;2022-11-06T07:14:14;99639.56;;;3.29;82.03
75996;BME280;64681;49.738;9.004;2022-11-06T07:16:40;99633.69;;;3.32;82.41
75996;BME280;64681;49.738;9.004;2022-11-06T07:19:05;99635.44;;;3.08;82.93
75996;BME280;64681;49.738;9.004;2022-11-06T07:21:31;99633.53;;;3.19;82.91
75996;BME280;64681;49.738;9.004;2022-11-06T07:23:56;99636.53;;;3.41;82.22
75996;BME280;64681;49.738;9.004;2022-11-06T07:26:22;99632.22;;;3.21;82.76
75996;BME280;64681;49.738;9.004;2022-11-06T07:28:47;99624.91;;;3.03;83.51
75996;BME280;64681;49.738;9.004;2022-11-06T07:31:13;99625.31;;;3.25;82.52
75996;BME280;64681;49.738;9.004;2022-11-06T07:33:39;99630.59;;;3.25;82.93
75996;BME280;64681;49.738;9.004;2022-11-06T07:36:10;99626.28;;;2.95;84.21
75996;BME280;64681;49.738;9.004;2022-11-06T07:38:38;99632.09;;;2.92;84.47
75996;BME280;64681;49.738;9.004;2022-11-06T07:41:07;99645.09;;;3.28;83.56
75996;BME280;64681;49.738;9.004;2022-11-06T07:43:34;99643.03;;;3.59;82.13
75996;BME280;64681;49.738;9.004;2022-11-06T07:46:05;99633.16;;;3.36;82.65
75996;BME280;64681;49.738;9.004;2022-11-06T07:48:31;99627.09;;;2.85;85.00
75996;BME280;64681;49.738;9.004;2022-11-06T07:51:01;99623.25;;;2.62;86.74
75996;BME280;64681;49.738;9.004;2022-11-06T07:53:27;99612.88;;;2.86;85.62
75996;BME280;64681;49.738;9.004;2022-11-06T07:55:54;99613.03;;;3.05;85.33
75996;BME280;64681;49.738;9.004;2022-11-06T07:58:21;99610.94;;;3.02;85.13
75996;BME280;64681;49.738;9.004;2022-11-06T08:00:48;99616.63;;;3.20;84.79
75996;BME280;64681;49.738;9.004;2022-11-06T08:03:15;99615.41;;;3.46;83.40
75996;BME280;64681;49.738;9.004;2022-11-06T08:05:40;99602.25;;;3.71;82.69
75996;BME280;64681;49.738;9.004;2022-11-06T08:08:06;99597.69;;;3.82;82.12
75996;BME280;64681;49.738;9.004;2022-11-06T08:10:32;99607.84;;;3.69;82.76
75996;BME280;64681;49.738;9.004;2022-11-06T08:13:00;99605.56;;;3.57;83.65
75996;BME280;64681;49.738;9.004;2022-11-06T08:15:26;99603.81;;;3.42;84.68
75996;BME280;64681;49.738;9.004;2022-11-06T08:17:51;99597.44;;;3.48;84.82
75996;BME280;64681;49.738;9.004;2022-11-06T08:20:17;99599.50;;;3.52;84.46
75996;BME280;64681;49.738;9.004;2022-11-06T08:22:42;99594.41;;;3.66;84.21
75996;BME280;64681;49.738;9.004;2022-11-06T08:25:08;99590.94;;;3.70;84.35
75996;BME280;64681;49.738;9.004;2022-11-06T08:27:34;99604.13;;;3.70;84.53
75996;BME280;64681;49.738;9.004;2022-11-06T08:29:59;99599.88;;;3.99;84.23
75996;BME280;64681;49.738;9.004;2022-11-06T08:32:26;99600.16;;;4.02;84.39
75996;BME280;64681;49.738;9.004;2022-11-06T08:34:52;99591.25;;;4.17;84.29
75996;BME280;64681;49.738;9.004;2022-11-06T08:37:19;99587.81;;;4.41;83.88
75996;BME280;64681;49.738;9.004;2022-11-06T08:39:45;99591.56;;;4.59;83.66
75996;BME280;64681;49.738;9.004;2022-11-06T08:42:11;99595.03;;;4.59;83.65
75996;BME280;64681;49.738;9.004;2022-11-06T08:44:36;99604.28;;;4.81;83.69
75996;BME280;64681;49.738;9.004;2022-11-06T08:47:02;99610.47;;;4.90;83.59
75996;BME280;64681;49.738;9.004;2022-11-06T08:49:27;99614.25;;;4.84;84.03
75996;BME280;64681;49.738;9.004;2022-11-06T08:51:53;99623.41;;;4.73;84.64
75996;BME280;64681;49.738;9.004;2022-11-06T08:54:19;99622.72;;;4.86;84.11
75996;BME280;64681;49.738;9.004;2022-11-06T08:56:45;99619.31;;;5.05;84.17
75996;BME280;64681;49.738;9.004;2022-11-06T08:59:10;99619.78;;;5.07;84.29
75996;BME280;64681;49.738;9.004;2022-11-06T09:01:36;99610.72;;;4.94;85.10
75996;BME280;64681;49.738;9.004;2022-11-06T09:04:02;99606.50;;;4.93;85.89
75996;BME280;64681;49.738;9.004;2022-11-06T09:06:27;99600.69;;;5.10;85.27
75996;BME280;64681;49.738;9.004;2022-11-06T09:08:53;99589.66;;;5.22;84.57
75996;BME280;64681;49.738;9.004;2022-11-06T09:11:20;99575.91;;;5.39;84.02
75996;BME280;64681;49.738;9.004;2022-11-06T09:13:46;99586.97;;;5.60;83.61
75996;BME280;64681;49.738;9.004;2022-11-06T09:16:11;99579.41;;;5.67;83.66
75996;BME280;64681;49.738;9.004;2022-11-06T09:18:37;99572.75;;;5.70;83.79
75996;BME280;64681;49.738;9.004;2022-11-06T09:21:02;99563.72;;;5.71;84.59
75996;BME280;64681;49.738;9.004;2022-11-06T09:23:28;99559.28;;;5.99;83.82
75996;BME280;64681;49.738;9.004;2022-11-06T09:25:56;99560.81;;;5.86;84.36
75996;BME280;64681;49.738;9.004;2022-11-06T09:28:21;99562.97;;;5.98;84.83
75996;BME280;64681;49.738;9.004;2022-11-06T09:30:47;99563.34;;;5.92;85.37
75996;BME280;64681;49.738;9.004;2022-11-06T09:33:13;99559.56;;;6.12;84.03
75996;BME280;64681;49.738;9.004;2022-11-06T09:35:39;99558.97;;;6.01;84.29
75996;BME280;64681;49.738;9.004;2022-11-06T09:38:07;99546.44;;;6.21;84.09
75996;BME280;64681;49.738;9.004;2022-11-06T09:46:26;99537.16;;;6.46;83.39
75996;BME280;64681;49.738;9.004;2022-11-06T09:49:23;99541.44;;;6.70;83.28
75996;BME280;64681;49.738;9.004;2022-11-06T09:51:52;99534.31;;;6.79;82.95
75996;BME280;64681;49.738;9.004;2022-11-06T09:54:46;99537.84;;;6.88;83.69
75996;BME280;64681;49.738;9.004;2022-11-06T09:57:38;99522.22;;;7.09;82.55
75996;BME280;64681;49.738;9.004;2022-11-06T10:00:12;99516.94;;;7.41;82.26
75996;BME280;64681;49.738;9.004;2022-11-06T10:02:46;99511.03;;;7.12;82.32
75996;BME280;64681;49.738;9.004;2022-11-06T10:05:14;99513.00;;;7.07;83.41
75996;BME280;64681;49.738;9.004;2022-11-06T10:07:44;99505.97;;;7.34;82.53
75996;BME280;64681;49.738;9.004;2022-11-06T10:10:17;99504.31;;;7.15;82.84
75996;BME280;64681;49.738;9.004;2022-11-06T10:13:01;99499.09;;;7.33;83.33
75996;BME280;64681;49.738;9.004;2022-11-06T10:15:48;99485.34;;;7.31;82.35
75996;BME280;64681;49.738;9.004;2022-11-06T10:21:02;99482.72;;;7.39;82.39
75996;BME280;64681;49.738;9.004;2022-11-06T10:26:12;99469.97;;;7.50;82.76
75996;BME280;64681;49.738;9.004;2022-11-06T10:36:49;99443.78;;;7.75;82.29
75996;BME280;64681;49.738;9.004;2022-11-06T10:39:25;99434.66;;;7.58;82.87
75996;BME280;64681;49.738;9.004;2022-11-06T10:42:08;99414.06;;;7.73;82.21
75996;BME280;64681;49.738;9.004;2022-11-06T10:45:01;99418.44;;;7.69;82.71
75996;BME280;64681;49.738;9.004;2022-11-06T10:47:38;99413.03;;;8.00;81.95
75996;BME280;64681;49.738;9.004;2022-11-06T10:50:10;99395.69;;;8.12;79.33
75996;BME280;64681;49.738;9.004;2022-11-06T10:55:34;99388.34;;;8.26;79.96
75996;BME280;64681;49.738;9.004;2022-11-06T10:58:08;99393.97;;;8.07;80.58
75996;BME280;64681;49.738;9.004;2022-11-06T11:00:36;99392.84;;;7.99;79.78
75996;BME280;64681;49.738;9.004;2022-11-06T11:03:18;99381.94;;;8.10;80.23
75996;BME280;64681;49.738;9.004;2022-11-06T11:05:46;99384.25;;;8.11;79.87
75996;BME280;64681;49.738;9.004;2022-11-06T11:13:27;99382.69;;;8.71;78.68
75996;BME280;64681;49.738;9.004;2022-11-06T11:15:53;99377.97;;;8.86;77.69
75996;BME280;64681;49.738;9.004;2022-11-06T11:20:50;99366.44;;;8.55;79.83
75996;BME280;64681;49.738;9.004;2022-11-06T11:23:22;99374.78;;;8.93;79.34
75996;BME280;64681;49.738;9.004;2022-11-06T11:25:51;99366.06;;;8.75;77.57
75996;BME280;64681;49.738;9.004;2022-11-06T11:28:38;99355.44;;;8.75;79.40
75996;BME280;64681;49.738;9.004;2022-11-06T11:31:14;99344.75;;;8.92;78.27
75996;BME280;64681;49.738;9.004;2022-11-06T11:33:51;99354.81;;;8.78;79.63
75996;BME280;64681;49.738;9.004;2022-11-06T11:36:18;99347.72;;;8.82;79.86
75996;BME280;64681;49.738;9.004;2022-11-06T11:38:44;99347.94;;;8.68;74.93
75996;BME280;64681;49.738;9.004;2022-11-06T11:41:13;99344.50;;;9.15;77.71
75996;BME280;64681;49.738;9.004;2022-11-06T11:43:40;99329.47;;;9.10;77.70
75996;BME280;64681;49.738;9.004;2022-11-06T11:53:44;99299.47;;;9.73;75.13
75996;BME280;64681;49.738;9.004;2022-11-06T11:56:15;99297.91;;;9.51;74.87
75996;BME280;64681;49.738;9.004;2022-11-06T11:58:54;99285.69;;;9.71;69.55
75996;BME280;64681;49.738;9.004;2022-11-06T12:01:37;99283.28;;;9.78;74.07
75996;BME280;64681;49.738;9.004;2022-11-06T12:04:27;99276.63;;;10.06;70.22
75996;BME280;64681;49.738;9.004;2022-11-06T12:07:03;99276.91;;;9.92;68.68
75996;BME280;64681;49.738;9.004;2022-11-06T12:09:40;99271.75;;;9.65;67.44
75996;BME280;64681;49.738;9.004;2022-11-06T12:14:44;99270.03;;;10.24;65.39
75996;BME280;64681;49.738;9.004;2022-11-06T12:17:20;99265.91;;;10.27;69.67
75996;BME280;64681;49.738;9.004;2022-11-06T12:19:51;99251.56;;;10.32;68.63
75996;BME280;64681;49.738;9.004;2022-11-06T12:22:28;99237.44;;;10.31;68.78
75996;BME280;64681;49.738;9.004;2022-11-06T12:25:40;99226.84;;;10.56;66.04
75996;BME280;64681;49.738;9.004;2022-11-06T12:27:56;99213.00;;;10.29;64.75
75996;BME280;64681;49.738;9.004;2022-11-06T12:30:23;99211.59;;;10.56;71.06
75996;BME280;64681;49.738;9.004;2022-11-06T12:33:22;99194.34;;;10.91;66.34
75996;BME280;64681;49.738;9.004;2022-11-06T12:36:13;99184.56;;;11.64;65.35
75996;BME280;64681;49.738;9.004;2022-11-06T12:38:53;99182.63;;;11.77;66.60
75996;BME280;64681;49.738;9.004;2022-11-06T12:41:30;99182.09;;;12.00;64.27
75996;BME280;64681;49.738;9.004;2022-11-06T12:43:58;99183.41;;;12.38;65.81
75996;BME280;64681;49.738;9.004;2022-11-06T12:54:51;99183.28;;;12.82;59.26
75996;BME280;64681;49.738;9.004;2022-11-06T13:00:20;99173.56;;;12.58;60.31
75996;BME280;64681;49.738;9.004;2022-11-06T13:06:08;99170.88;;;12.26;59.97
75996;BME280;64681;49.738;9.004;2022-11-06T13:08:46;99164.34;;;11.51;60.52
75996;BME280;64681;49.738;9.004;2022-11-06T13:19:30;99139.53;;;12.43;60.01
75996;BME280;64681;49.738;9.004;2022-11-06T13:29:47;99138.31;;;12.24;64.06
75996;BME280;64681;49.738;9.004;2022-11-06T13:32:20;99132.03;;;12.48;61.26
75996;BME280;64681;49.738;9.004;2022-11-06T13:34:53;99117.75;;;12.60;59.35
75996;BME280;64681;49.738;9.004;2022-11-06T13:37:42;99114.13;;;12.53;62.95
75996;BME280;64681;49.738;9.004;2022-11-06T13:40:29;99120.84;;;12.62;60.14
75996;BME280;64681;49.738;9.004;2022-11-06T13:45:52;99126.06;;;12.23;61.90
75996;BME280;64681;49.738;9.004;2022-11-06T13:49:20;99119.59;;;12.40;60.88
75996;BME280;64681;49.738;9.004;2022-11-06T13:51:59;99133.94;;;12.32;62.66
75996;BME280;64681;49.738;9.004;2022-11-06T14:08:05;99108.97;;;12.44;62.38
75996;BME280;64681;49.738;9.004;2022-11-06T14:10:35;99109.22;;;12.39;61.38
75996;BME280;64681;49.738;9.004;2022-11-06T14:13:05;99110.59;;;12.32;62.86
75996;BME280;64681;49.738;9.004;2022-11-06T14:15:36;99117.06;;;12.47;63.31
75996;BME280;64681;49.738;9.004;2022-11-06T14:18:04;99113.16;;;12.61;63.07
75996;BME280;64681;49.738;9.004;2022-11-06T14:20:36;99111.16;;;12.58;63.82
75996;BME280;64681;49.738;9.004;2022-11-06T14:28:32;99095.28;;;12.49;64.13
75996;BME280;64681;49.738;9.004;2022-11-06T14:30:58;99093.38;;;12.49;64.57
75996;BME280;64681;49.738;9.004;2022-11-06T14:38:51;99089.97;;;12.17;65.85
75996;BME280;64681;49.738;9.004;2022-11-06T14:44:05;99083.16;;;11.87;67.77
75996;BME280;64681;49.738;9.004;2022-11-06T14:46:49;99089.63;;;11.86;67.36
75996;BME280;64681;49.738;9.004;2022-11-06T14:52:00;99088.50;;;12.19;65.37
75996;BME280;64681;49.738;9.004;2022-11-06T14:54:27;99088.53;;;12.03;64.58
75996;BME280;64681;49.738;9.004;2022-11-06T14:56:54;99091.19;;;12.03;65.21
75996;BME280;64681;49.738;9.004;2022-11-06T14:59:34;99075.97;;;11.92;65.13
75996;BME280;64681;49.738;9.004;2022-11-06T15:02:21;99082.09;;;11.92;66.21
75996;BME280;64681;49.738;9.004;2022-11-06T15:05:01;99086.81;;;11.67;66.61
75996;BME280;64681;49.738;9.004;2022-11-06T15:10:01;99076.66;;;11.56;67.65
75996;BME280;64681;49.738;9.004;2022-11-06T15:15:30;99067.78;;;11.24;69.14
75996;BME280;64681;49.738;9.004;2022-11-06T15:17:59;99066.72;;;11.13;69.32
75996;BME280;64681;49.738;9.004;2022-11-06T15:20:30;99070.47;;;10.83;70.85
75996;BME280;64681;49.738;9.004;2022-11-06T15:23:11;99070.84;;;10.69;70.30
75996;BME280;64681;49.738;9.004;2022-11-06T15:25:46;99059.75;;;10.18;72.00
75996;BME280;64681;49.738;9.004;2022-11-06T15:28:21;99059.31;;;10.03;72.84
75996;BME280;64681;49.738;9.004;2022-11-06T15:31:06;99064.03;;;9.60;73.56
75996;BME280;64681;49.738;9.004;2022-11-06T15:33:57;99070.63;;;10.00;73.07
75996;BME280;64681;49.738;9.004;2022-11-06T15:36:27;99076.66;;;9.97;73.60
75996;BME280;64681;49.738;9.004;2022-11-06T15:38:53;99073.69;;;9.53;74.90
75996;BME280;64681;49.738;9.004;2022-11-06T15:41:23;99055.66;;;9.37;75.63
75996;BME280;64681;49.738;9.004;2022-11-06T15:43:52;99054.59;;;9.50;75.79
75996;BME280;64681;49.738;9.004;2022-11-06T15:49:11;99058.53;;;9.78;74.15
75996;BME280;64681;49.738;9.004;2022-11-06T15:51:39;99048.44;;;9.38;76.13